Time;durP1;ratioP1;P1;durP2;ratioP2;P2;SDS_P1;SDS_P2;PMS_P1;PMS_P2;Temp;Humidity;BMP_temperature;BMP_pressure;BME280_temperature;BME280_humidity;BME280_pressure;Samples;Min_cycle;Max_cycle;Signal;HPM_P1;HPM_P2
2022/04/26 03:36:34;;;;;;;;;;;;;;;20.36;41.13;101438.84;5075323;28;20375;-80
2022/04/26 03:39:00;;;;;;;;;;;;;;;20.36;41.29;101438.84;5073978;28;20379;-80
2022/04/26 03:41:25;;;;;;;;;;;;;;;20.37;41.18;101436.91;5074003;28;19927;-80
2022/04/26 03:43:50;;;;;;;;;;;;;;;20.36;41.30;101441.59;5057019;28;19920;-80
2022/04/26 03:46:15;;;;;;;;;;;;;;;20.37;41.14;101447.88;5075770;28;19917;-82
2022/04/26 03:48:41;;;;;;;;;;;;;;;20.36;41.27;101433.34;5074439;28;19920;-80
2022/04/26 03:51:06;;;;;;;;;;;;;;;20.35;41.26;101437.19;5076109;28;20011;-80
2022/04/26 03:53:32;;;;;;;;;;;;;;;20.36;41.37;101444.34;5056759;28;19942;-80
2022/04/26 03:55:58;;;;;;;;;;;;;;;20.37;41.23;101450.63;5073399;28;19987;-80
2022/04/26 03:58:24;;;;;;;;;;;;;;;20.36;41.30;101446.22;5056538;28;19932;-80
2022/04/26 04:00:50;;;;;;;;;;;;;;;20.35;41.41;101448.16;5073305;28;19971;-81
2022/04/26 04:03:15;;;;;;;;;;;;;;;20.36;41.26;101451.72;5073325;28;19921;-81
2022/04/26 04:05:42;;;;;;;;;;;;;;;20.35;41.09;101447.34;5056531;28;20230;-80
2022/04/26 04:08:07;;;;;;;;;;;;;;;20.34;41.04;101446.53;5074082;28;19927;-80
2022/04/26 04:10:32;;;;;;;;;;;;;;;20.34;41.29;101460.25;5074049;28;19920;-80
2022/04/26 04:12:58;;;;;;;;;;;;;;;20.35;41.46;101452.84;5073149;28;20368;-80
2022/04/26 04:15:23;;;;;;;;;;;;;;;20.34;40.92;101457.53;5056275;28;20030;-81
2022/04/26 04:17:48;;;;;;;;;;;;;;;20.34;41.06;101465.75;5073029;28;19920;-80
2022/04/26 04:20:15;;;;;;;;;;;;;;;20.34;41.19;101462.19;5056334;28;19920;-80
2022/04/26 04:22:40;;;;;;;;;;;;;;;20.33;41.19;101472.31;5089682;28;19917;-80
2022/04/26 04:25:06;;;;;;;;;;;;;;;20.33;41.18;101480.56;5055816;28;20335;-80
2022/04/26 04:27:32;;;;;;;;;;;;;;;20.33;41.21;101475.06;5073647;28;19925;-81
2022/04/26 04:30:02;;;;;;;;;;;;;;;20.33;41.28;101477.81;5056277;28;19920;-80
2022/04/26 04:32:27;;;;;;;;;;;;;;;20.32;41.09;101471.50;5056820;28;19968;-80
2022/04/26 04:34:52;;;;;;;;;;;;;;;20.32;41.41;101476.19;5056023;28;19921;-80
2022/04/26 04:37:17;;;;;;;;;;;;;;;20.31;41.20;101475.38;5056021;28;19920;-80
2022/04/26 04:39:43;;;;;;;;;;;;;;;20.31;41.35;101480.06;5072662;28;19927;-81
2022/04/26 04:42:08;;;;;;;;;;;;;;;20.31;41.15;101494.59;5072634;28;20015;-80
2022/04/26 04:44:33;;;;;;;;;;;;;;;20.31;41.39;101499.25;5072642;28;20284;-80
2022/04/26 04:47:00;;;;;;;;;;;;;;;20.30;41.30;101498.41;5073271;28;19920;-80
2022/04/26 04:49:25;;;;;;;;;;;;;;;20.30;41.16;101501.16;5073098;28;20062;-80
2022/04/26 04:51:50;;;;;;;;;;;;;;;20.30;41.43;101506.66;5072897;28;20007;-80
2022/04/26 04:54:16;;;;;;;;;;;;;;;20.31;41.19;101504.75;5072406;28;19974;-80
2022/04/26 04:56:41;;;;;;;;;;;;;;;20.30;41.42;101505.84;5073320;28;19928;-80
2022/04/26 04:59:07;;;;;;;;;;;;;;;20.28;41.17;101503.38;5056375;28;19920;-80
2022/04/26 05:01:32;;;;;;;;;;;;;;;20.28;41.08;101508.84;5072471;28;20400;-80
2022/04/26 05:03:57;;;;;;;;;;;;;;;20.28;41.17;101517.09;5074038;28;19927;-81
2022/04/26 05:06:23;;;;;;;;;;;;;;;20.28;41.18;101511.59;5055907;28;20364;-80
2022/04/26 05:08:48;;;;;;;;;;;;;;;20.28;41.22;101522.56;5072674;28;20303;-80
2022/04/26 05:11:14;;;;;;;;;;;;;;;20.28;41.16;101530.00;5072627;28;19920;-80
2022/04/26 05:13:39;;;;;;;;;;;;;;;20.29;41.14;101529.72;5073653;28;20318;-81
2022/04/26 05:16:05;;;;;;;;;;;;;;;20.28;41.16;101528.06;5072347;28;19966;-80
2022/04/26 05:18:30;;;;;;;;;;;;;;;20.29;41.25;101528.91;5072253;28;19916;-79
2022/04/26 05:20:55;;;;;;;;;;;;;;;20.28;41.23;101527.25;5073264;28;20391;-80
2022/04/26 05:26:04;;;;;;;;;;;;;;;20.28;41.43;101530.00;5073919;28;19928;-79
2022/04/26 05:28:30;;;;;;;;;;;;;;;20.27;41.37;101528.38;5071841;28;19916;-79
2022/04/26 05:30:55;;;;;;;;;;;;;;;20.27;41.36;101533.84;5072175;28;20382;-77
2022/04/26 05:33:25;;;;;;;;;;;;;;;20.27;41.38;101534.66;5055217;28;20404;-78
2022/04/26 05:35:50;;;;;;;;;;;;;;;20.29;41.61;101528.91;5072088;28;19917;-77
2022/04/26 05:38:16;;;;;;;;;;;;;;;20.29;41.56;101537.94;5073518;28;19931;-79
2022/04/26 05:40:41;;;;;;;;;;;;;;;20.30;41.62;101541.50;5073309;28;19916;-80
2022/04/26 05:43:07;;;;;;;;;;;;;;;20.30;41.72;101547.00;5072218;28;19917;-79
2022/04/26 05:45:32;;;;;;;;;;;;;;;20.31;41.81;101543.16;5073348;28;19920;-79
2022/04/26 05:47:57;;;;;;;;;;;;;;;20.30;41.62;101545.06;5073689;28;20039;-79
2022/04/26 05:50:23;;;;;;;;;;;;;;;20.29;41.60;101543.44;5073082;28;19927;-79
2022/04/26 05:52:48;;;;;;;;;;;;;;;20.29;41.81;101554.41;5072026;28;19928;-79
2022/04/26 05:55:13;;;;;;;;;;;;;;;20.30;41.63;101552.47;5072223;28;20341;-79
2022/04/26 05:57:39;;;;;;;;;;;;;;;20.30;41.92;101547.00;5072604;28;19923;-79
2022/04/26 06:00:05;;;;;;;;;;;;;;;20.30;41.48;101563.44;5074011;28;19924;-79
2022/04/26 06:02:30;;;;;;;;;;;;;;;20.28;41.74;101558.25;5073416;28;19969;-79
2022/04/26 06:04:56;;;;;;;;;;;;;;;20.29;42.02;101561.81;5073007;28;19921;-79
2022/04/26 06:07:21;;;;;;;;;;;;;;;20.29;41.93;101565.38;5058740;28;19929;-85
2022/04/26 06:09:46;;;;;;;;;;;;;;;20.29;41.79;101567.31;5058675;28;19927;-80
2022/04/26 06:12:12;;;;;;;;;;;;;;;20.29;41.79;101562.63;5075261;28;20491;-77
2022/04/26 06:14:37;;;;;;;;;;;;;;;20.30;41.74;101568.94;5075303;28;19924;-76
2022/04/26 06:17:03;;;;;;;;;;;;;;;20.30;41.77;101568.94;5076568;28;19939;-75
2022/04/26 06:19:28;;;;;;;;;;;;;;;20.31;41.91;101573.34;5076225;28;19922;-75
2022/04/26 06:21:53;;;;;;;;;;;;;;;20.30;41.80;101569.75;5058319;28;19921;-75
2022/04/26 06:24:19;;;;;;;;;;;;;;;20.31;42.01;101579.63;5075155;28;20283;-74
2022/04/26 06:26:44;;;;;;;;;;;;;;;20.31;42.07;101573.34;5076341;28;19967;-75
2022/04/26 06:29:09;;;;;;;;;;;;;;;20.31;41.84;101571.41;5058330;28;19921;-76
2022/04/26 06:31:35;;;;;;;;;;;;;;;20.30;41.98;101575.25;5075236;28;20352;-74
2022/04/26 06:34:00;;;;;;;;;;;;;;;20.31;42.10;101581.56;5074296;28;19924;-78
2022/04/26 06:36:25;;;;;;;;;;;;;;;20.32;42.11;101585.94;5057537;28;20027;-78
2022/04/26 06:38:50;;;;;;;;;;;;;;;20.34;41.96;101583.72;5074600;28;20290;-77
2022/04/26 06:41:16;;;;;;;;;;;;;;;20.35;42.20;101581.78;5074206;28;19921;-84
2022/04/26 06:43:41;;;;;;;;;;;;;;;20.36;42.37;101587.00;5057514;28;19962;-78
2022/04/26 06:46:06;;;;;;;;;;;;;;;20.37;42.24;101590.56;5074435;28;19946;-76
2022/04/26 06:48:32;;;;;;;;;;;;;;;20.39;42.30;101593.84;5074383;28;19921;-78
2022/04/26 06:50:57;;;;;;;;;;;;;;;20.41;42.21;101597.94;5074967;28;19924;-78
2022/04/26 06:53:22;;;;;;;;;;;;;;;20.42;42.41;101601.50;5075807;28;19920;-78
2022/04/26 06:55:47;;;;;;;;;;;;;;;20.42;42.33;101604.25;5057208;28;19920;-79
2022/04/26 06:58:13;;;;;;;;;;;;;;;20.43;42.33;101605.88;5058226;28;19970;-79
2022/04/26 07:00:38;;;;;;;;;;;;;;;20.43;42.55;101603.13;5075539;28;20252;-78
2022/04/26 07:03:03;;;;;;;;;;;;;;;20.44;42.58;101607.53;5074551;28;19934;-77
2022/04/26 07:05:29;;;;;;;;;;;;;;;20.44;42.58;101605.59;5073987;28;19917;-77
2022/04/26 07:07:54;;;;;;;;;;;;;;;20.46;42.46;101611.63;5074205;28;19913;-78
2022/04/26 07:10:20;;;;;;;;;;;;;;;20.47;42.56;101607.75;5075199;28;19920;-78
2022/04/26 07:12:45;;;;;;;;;;;;;;;20.48;42.37;101612.13;5074276;28;19916;-78
2022/04/26 07:15:11;;;;;;;;;;;;;;;20.50;42.48;101614.59;5073785;28;20404;-78
2022/04/26 07:17:43;;;;;;;;;;;;;;;20.52;42.71;101615.94;5057146;28;19916;-78
2022/04/26 07:20:09;;;;;;;;;;;;;;;20.54;42.20;101618.41;5073888;28;20281;-79
2022/04/26 07:22:34;;;;;;;;;;;;;;;20.56;42.12;101615.38;5075052;28;19919;-78
2022/04/26 07:25:00;;;;;;;;;;;;;;;20.58;42.57;101618.66;5074593;28;20022;-79
2022/04/26 07:27:25;;;;;;;;;;;;;;;20.59;42.07;101628.53;5074878;28;19916;-80
2022/04/26 07:29:51;;;;;;;;;;;;;;;20.60;42.31;101628.25;5056807;28;19923;-81
2022/04/26 07:32:16;;;;;;;;;;;;;;;20.62;42.20;101628.78;5075220;28;19924;-79
2022/04/26 07:34:41;;;;;;;;;;;;;;;20.63;42.54;101633.16;5074495;28;19917;-79
2022/04/26 07:37:07;;;;;;;;;;;;;;;20.65;42.17;101633.69;5073206;28;19920;-79
2022/04/26 07:39:34;;;;;;;;;;;;;;;20.66;42.45;101635.34;5073468;28;19916;-79
2022/04/26 07:42:00;;;;;;;;;;;;;;;20.68;42.44;101643.28;5073911;28;20270;-82
2022/04/26 07:44:26;;;;;;;;;;;;;;;20.69;42.30;101632.00;5056692;28;20098;-82
2022/04/26 07:46:52;;;;;;;;;;;;;;;20.70;42.33;101644.63;5056437;28;19920;-80
2022/04/26 07:49:23;;;;;;;;;;;;;;;20.72;42.36;101644.34;5074456;28;20011;-80
2022/04/26 07:51:48;;;;;;;;;;;;;;;20.73;42.32;101641.28;5073272;28;19927;-81
2022/04/26 07:54:15;;;;;;;;;;;;;;;20.75;42.22;101654.75;5073286;28;20003;-82
2022/04/26 07:56:41;;;;;;;;;;;;;;;20.76;42.49;101648.13;5073173;28;19925;-81
2022/04/26 07:59:06;;;;;;;;;;;;;;;20.78;42.19;101658.84;5074048;28;19924;-81
2022/04/26 08:01:32;;;;;;;;;;;;;;;20.79;42.20;101660.47;5073866;28;19969;-80
2022/04/26 08:03:57;;;;;;;;;;;;;;;20.79;42.24;101664.06;5074215;28;19920;-81
2022/04/26 08:06:23;;;;;;;;;;;;;;;20.81;42.15;101669.22;5072879;28;19970;-80
2022/04/26 08:08:48;;;;;;;;;;;;;;;20.81;42.50;101661.00;5072937;28;20341;-82
2022/04/26 08:11:13;;;;;;;;;;;;;;;20.82;42.44;101674.44;5073145;28;19927;-86
2022/04/26 08:13:40;;;;;;;;;;;;;;;20.82;42.29;101668.16;5055999;28;19927;-83
2022/04/26 08:16:05;;;;;;;;;;;;;;;20.79;42.12;101666.78;5073509;28;20037;-83
2022/04/26 08:18:31;;;;;;;;;;;;;;;20.78;42.07;101675.31;5072716;28;20404;-83
2022/04/26 08:20:56;;;;;;;;;;;;;;;20.77;41.97;101680.00;5055505;28;19926;-83
2022/04/26 08:23:21;;;;;;;;;;;;;;;20.75;42.17;101679.44;5056705;28;19920;-83
2022/04/26 08:28:30;;;;;;;;;;;;;;;20.73;41.99;101679.72;5073336;28;19944;-81
2022/04/26 08:30:56;;;;;;;;;;;;;;;20.72;41.94;101682.78;5072376;28;20360;-81
2022/04/26 08:33:22;;;;;;;;;;;;;;;20.73;41.75;101687.97;5072249;28;20329;-80
2022/04/26 08:35:47;;;;;;;;;;;;;;;20.74;41.77;101686.88;5072158;28;19916;-83
2022/04/26 08:38:12;;;;;;;;;;;;;;;20.74;41.90;101697.84;5074386;28;19974;-80
2022/04/26 08:40:41;;;;;;;;;;;;;;;20.75;41.77;101693.19;5056934;28;19921;-82
2022/04/26 08:43:06;;;;;;;;;;;;;;;20.78;41.70;101697.28;5073175;28;19920;-81
2022/04/26 08:45:32;;;;;;;;;;;;;;;20.77;41.83;101696.47;5072989;28;20015;-81
2022/04/26 08:50:59;;;;;;;;;;;;;;;20.79;41.94;101699.75;5074034;28;20011;-81
2022/04/26 08:53:25;;;;;;;;;;;;;;;20.81;41.82;101699.44;5073254;28;19916;-79
2022/04/26 08:55:52;;;;;;;;;;;;;;;20.82;41.95;101701.09;5071917;28;19916;-80
2022/04/26 08:58:21;;;;;;;;;;;;;;;20.82;41.71;101710.16;5072768;28;19916;-80
2022/04/26 09:01:05;;;;;;;;;;;;;;;20.84;41.77;101701.59;5072145;28;19921;-80
2022/04/26 09:03:31;;;;;;;;;;;;;;;20.85;41.65;101701.31;5072221;28;20407;-81
2022/04/26 09:06:13;;;;;;;;;;;;;;;20.86;41.75;101711.19;5073041;28;19912;-80
2022/04/26 09:08:39;;;;;;;;;;;;;;;20.88;41.91;101713.66;5073720;28;20389;-80
2022/04/26 09:11:19;;;;;;;;;;;;;;;20.88;42.00;101717.22;5073190;28;20364;-79
2022/04/26 09:13:44;;;;;;;;;;;;;;;20.89;41.68;101718.88;5072415;28;19916;-79
2022/04/26 09:16:17;;;;;;;;;;;;;;;20.90;41.77;101720.50;5073736;28;19921;-79
2022/04/26 09:18:49;;;;;;;;;;;;;;;20.92;41.90;101714.72;5073641;28;19916;-78
2022/04/26 09:21:14;;;;;;;;;;;;;;;20.93;41.95;101730.09;5073671;28;19921;-79
2022/04/26 09:23:40;;;;;;;;;;;;;;;20.94;41.76;101728.97;5073196;28;20269;-80
2022/04/26 09:26:09;;;;;;;;;;;;;;;20.93;41.74;101725.41;5073426;28;19956;-81
2022/04/26 09:28:39;;;;;;;;;;;;;;;20.95;41.61;101725.94;5073658;28;19921;-81
2022/04/26 09:31:18;;;;;;;;;;;;;;;20.96;41.85;101733.09;5073541;28;19939;-79
2022/04/26 09:33:47;;;;;;;;;;;;;;;20.97;41.88;101728.41;5074395;28;20014;-82
2022/04/26 09:36:13;;;;;;;;;;;;;;;20.98;41.91;101730.03;5071856;28;20398;-81
2022/04/26 09:38:39;;;;;;;;;;;;;;;21.00;41.73;101743.50;5072074;28;19917;-81
2022/04/26 09:41:07;;;;;;;;;;;;;;;21.00;41.79;101749.81;5076032;28;19921;-81
2022/04/26 09:43:32;;;;;;;;;;;;;;;21.01;41.92;101743.19;5075820;28;19917;-82
2022/04/26 09:45:58;;;;;;;;;;;;;;;21.03;41.71;101748.41;5077112;28;20006;-82
2022/04/26 09:48:25;;;;;;;;;;;;;;;21.03;41.78;101748.41;5076143;28;19982;-81
2022/04/26 09:50:50;;;;;;;;;;;;;;;21.05;41.78;101752.50;5075640;28;19916;-81
2022/04/26 09:53:16;;;;;;;;;;;;;;;21.05;41.61;101744.25;5076541;28;20022;-82
2022/04/26 09:55:42;;;;;;;;;;;;;;;21.06;41.54;101750.56;5075510;28;19921;-80
2022/04/26 09:58:07;;;;;;;;;;;;;;;21.07;41.80;101760.47;5075329;28;20387;-80
2022/04/26 10:00:33;;;;;;;;;;;;;;;21.07;41.50;101754.97;5075403;28;19920;-81
2022/04/26 10:03:02;;;;;;;;;;;;;;;21.06;41.55;101750.56;5076402;28;20042;-79
2022/04/26 10:05:31;;;;;;;;;;;;;;;21.06;41.59;101745.88;5076874;28;19969;-80
2022/04/26 10:07:56;;;;;;;;;;;;;;;21.06;41.46;101756.06;5076268;28;19921;-80
2022/04/26 10:10:23;;;;;;;;;;;;;;;21.06;41.30;101765.13;5076828;28;20222;-80
2022/04/26 10:15:34;;;;;;;;;;;;;;;21.04;41.42;101761.88;5076952;28;19927;-79
2022/04/26 10:17:59;;;;;;;;;;;;;;;21.05;41.64;101766.25;5076036;28;19958;-80
2022/04/26 10:20:40;;;;;;;;;;;;;;;21.06;41.38;101769.78;5059067;28;19917;-79
2022/04/26 10:23:06;;;;;;;;;;;;;;;21.05;41.56;101777.22;5074806;28;19956;-79
2022/04/26 10:25:31;;;;;;;;;;;;;;;21.04;41.46;101761.88;5075770;28;19928;-79
2022/04/26 10:28:15;;;;;;;;;;;;;;;21.04;41.41;101781.09;5075145;28;20325;-79
2022/04/26 10:30:50;;;;;;;;;;;;;;;21.04;41.55;101772.00;5074969;28;20305;-79
2022/04/26 10:33:34;;;;;;;;;;;;;;;21.03;41.31;101776.69;5076590;28;19920;-79
2022/04/26 10:36:20;;;;;;;;;;;;;;;21.03;41.31;101773.13;5076328;28;19924;-79
2022/04/26 10:39:24;;;;;;;;;;;;;;;21.04;41.51;101791.25;5063635;28;19948;-80
2022/04/26 10:41:49;;;;;;;;;;;;;;;21.03;41.51;101786.88;5033687;28;19933;-79
2022/04/26 10:44:21;;;;;;;;;;;;;;;21.03;41.48;101782.19;5033406;28;19979;-75
2022/04/26 10:46:50;;;;;;;;;;;;;;;21.03;41.42;101790.41;5061095;28;20336;-78
2022/04/26 10:49:25;;;;;;;;;;;;;;;21.04;41.49;101778.34;5074530;28;19923;-79
2022/04/26 10:51:53;;;;;;;;;;;;;;;21.05;41.46;101784.66;5073784;28;19917;-81
2022/04/26 10:54:37;;;;;;;;;;;;;;;21.06;41.55;101781.59;5074210;28;20011;-80
2022/04/26 10:57:02;;;;;;;;;;;;;;;21.07;41.62;101791.50;5074615;28;19916;-80
2022/04/26 10:59:27;;;;;;;;;;;;;;;21.08;41.43;101786.81;5075444;28;19927;-81
2022/04/26 11:01:54;;;;;;;;;;;;;;;21.09;41.36;101781.03;5075327;28;20376;-79
2022/04/26 11:04:20;;;;;;;;;;;;;;;21.10;41.31;101784.59;5073943;28;19916;-83
2022/04/26 11:06:45;;;;;;;;;;;;;;;21.11;41.50;101780.75;5057523;28;20077;-82
2022/04/26 11:09:15;;;;;;;;;;;;;;;21.12;41.30;101785.97;5073599;28;19925;-80
2022/04/26 11:11:50;;;;;;;;;;;;;;;21.13;41.53;101781.28;5073852;28;20333;-81
2022/04/26 11:14:17;;;;;;;;;;;;;;;21.13;41.37;101773.84;5074678;28;19943;-81
2022/04/26 11:17:05;;;;;;;;;;;;;;;21.15;41.28;101781.81;5073495;28;19981;-81
2022/04/26 11:19:36;;;;;;;;;;;;;;;21.16;41.45;101780.69;5073460;28;19916;-80
2022/04/26 11:22:05;;;;;;;;;;;;;;;21.12;41.44;101776.91;5073568;28;19998;-86
2022/04/26 11:30:03;;;;;;;;;;;;;;;21.11;41.72;101783.50;5075552;28;19923;-83
2022/04/26 11:32:28;;;;;;;;;;;;;;;21.11;41.63;101791.72;5074037;28;19921;-87
2022/04/26 11:34:53;;;;;;;;;;;;;;;21.11;41.98;101783.50;5075534;28;20358;-93
2022/04/26 11:37:20;;;;;;;;;;;;;;;21.13;41.77;101792.25;5056907;28;20014;-87
2022/04/26 11:39:46;;;;;;;;;;;;;;;21.14;41.91;101802.13;5073727;28;20303;-89
2022/04/26 11:42:12;;;;;;;;;;;;;;;21.13;41.91;101793.09;5073309;28;19916;-88
2022/04/26 11:44:54;;;;;;;;;;;;;;;21.15;42.01;101801.03;5072864;28;20011;-86
2022/04/26 11:47:19;;;;;;;;;;;;;;;21.15;41.77;101792.81;5073561;28;19940;-85
2022/04/26 11:49:45;;;;;;;;;;;;;;;21.17;41.73;101793.34;5073907;28;20369;-87
2022/04/26 11:52:10;;;;;;;;;;;;;;;21.16;41.68;101799.94;5074831;28;19917;-87
2022/04/26 11:54:36;;;;;;;;;;;;;;;21.18;41.94;101800.47;5057241;28;19959;-80
2022/04/26 11:57:03;;;;;;;;;;;;;;;21.19;41.96;101807.59;5074170;28;20375;-83
2022/04/26 11:59:28;;;;;;;;;;;;;;;21.18;42.00;101806.78;5074049;28;19923;-84
2022/04/26 12:01:53;;;;;;;;;;;;;;;21.19;41.71;101813.09;5055816;28;20004;-85
2022/04/26 12:04:19;;;;;;;;;;;;;;;21.21;42.01;101810.06;5072547;28;20279;-86
2022/04/26 12:06:44;;;;;;;;;;;;;;;21.20;42.08;101803.75;5056463;28;19921;-86
2022/04/26 12:09:15;;;;;;;;;;;;;;;21.21;41.80;101805.38;5073137;28;20391;-87
2022/04/26 12:11:41;;;;;;;;;;;;;;;21.23;41.87;101802.34;5074796;28;19916;-83
2022/04/26 12:14:29;;;;;;;;;;;;;;;21.24;42.04;101798.47;5073390;28;19920;-92
2022/04/26 12:16:56;;;;;;;;;;;;;;;21.24;42.01;101798.47;5065254;28;19916;-88
2022/04/26 12:19:35;;;;;;;;;;;;;;;21.25;42.09;101806.44;5075889;28;19926;-93
2022/04/26 12:22:00;;;;;;;;;;;;;;;21.25;41.85;101811.94;5076285;28;19917;-94
2022/04/26 12:24:29;;;;;;;;;;;;;;;21.26;41.79;101813.56;5082883;28;19970;-93
2022/04/26 12:26:58;;;;;;;;;;;;;;;21.27;41.84;101808.88;5074067;28;19916;-92
2022/04/26 12:29:24;;;;;;;;;;;;;;;21.27;42.07;101803.41;5073973;28;19923;-96
2022/04/26 12:31:55;;;;;;;;;;;;;;;21.27;41.95;101814.38;5074667;28;20419;-94
2022/04/26 12:34:21;;;;;;;;;;;;;;;21.26;42.00;101818.25;5074368;28;19924;-90
2022/04/26 12:37:10;;;;;;;;;;;;;;;21.27;41.84;101817.97;5074747;28;20362;-91
2022/04/26 12:39:39;;;;;;;;;;;;;;;21.27;42.13;101817.13;5074317;28;19916;-93
2022/04/26 12:42:04;;;;;;;;;;;;;;;21.27;42.17;101811.63;5074136;28;19916;-87
2022/04/26 12:44:29;;;;;;;;;;;;;;;21.27;42.23;101817.97;5072443;28;19966;-87
2022/04/26 12:52:39;;;;;;;;;;;;;;;21.28;42.13;101808.59;5074145;28;19924;-84
2022/04/26 12:55:04;;;;;;;;;;;;;;;21.27;41.97;101808.88;5089793;28;20303;-87
2022/04/26 12:57:30;;;;;;;;;;;;;;;21.27;42.27;101804.22;5073604;28;20360;-89
2022/04/26 12:59:55;;;;;;;;;;;;;;;21.28;42.25;101807.81;5058731;28;19920;-88
2022/04/26 13:02:20;;;;;;;;;;;;;;;21.28;41.96;101803.13;5058407;28;19969;-88
2022/04/26 13:04:45;;;;;;;;;;;;;;;21.29;42.03;101802.03;5072977;28;20025;-88
2022/04/26 13:07:11;;;;;;;;;;;;;;;21.30;41.93;101806.41;5073285;28;20285;-91
2022/04/26 13:09:36;;;;;;;;;;;;;;;21.31;42.27;101804.47;5056518;28;19982;-87
2022/04/26 13:12:02;;;;;;;;;;;;;;;21.33;42.11;101813.25;5073219;28;19997;-86
2022/04/26 13:14:27;;;;;;;;;;;;;;;21.33;42.16;101811.31;5059633;28;19924;-91
2022/04/26 13:16:55;;;;;;;;;;;;;;;21.34;42.18;101810.22;5084718;28;19924;-90
2022/04/26 13:19:23;;;;;;;;;;;;;;;21.35;42.09;101808.28;5073636;28;20375;-90
2022/04/26 13:21:54;;;;;;;;;;;;;;;21.35;42.06;101803.59;5075530;28;19987;-93
2022/04/26 13:24:27;;;;;;;;;;;;;;;21.36;42.21;101807.16;5095433;28;19920;-94
2022/04/26 13:26:57;;;;;;;;;;;;;;;21.36;41.98;101804.41;5089749;28;19912;-90
2022/04/26 13:29:25;;;;;;;;;;;;;;;21.36;42.42;101802.47;5082297;28;19964;-89
2022/04/26 13:31:51;;;;;;;;;;;;;;;21.36;42.24;101807.97;5079232;28;19967;-85
2022/04/26 13:34:16;;;;;;;;;;;;;;;21.36;42.06;101802.47;5060152;28;19935;-90
2022/04/26 13:36:42;;;;;;;;;;;;;;;21.36;42.19;101815.41;5059492;28;19927;-83
2022/04/26 13:39:13;;;;;;;;;;;;;;;21.35;42.09;101805.53;5077297;28;20412;-88
2022/04/26 13:41:38;;;;;;;;;;;;;;;21.35;41.99;101806.34;5076594;28;19963;-87
2022/04/26 13:44:04;;;;;;;;;;;;;;;21.35;42.23;101805.53;5076400;28;19962;-90
2022/04/26 13:46:30;;;;;;;;;;;;;;;21.34;42.25;101812.13;5076805;28;19916;-83
2022/04/26 13:48:55;;;;;;;;;;;;;;;21.34;42.30;101815.72;5059992;28;20001;-82
2022/04/26 13:51:23;;;;;;;;;;;;;;;21.34;41.98;101820.38;5058471;28;19989;-85
2022/04/26 13:53:48;;;;;;;;;;;;;;;21.33;42.25;101816.00;5076075;28;19977;-83
2022/04/26 13:56:14;;;;;;;;;;;;;;;21.32;42.36;101812.44;5075741;28;20010;-83
2022/04/26 13:58:39;;;;;;;;;;;;;;;21.32;42.27;101817.94;5075676;28;19916;-83
2022/04/26 14:01:04;;;;;;;;;;;;;;;21.33;42.14;101813.25;5058747;28;20032;-84
2022/04/26 14:03:31;;;;;;;;;;;;;;;21.32;42.23;101817.94;5076388;28;20353;-85
2022/04/26 14:05:57;;;;;;;;;;;;;;;21.32;42.12;101806.13;5075746;28;19953;-85
2022/04/26 14:08:22;;;;;;;;;;;;;;;21.31;42.24;101816.28;5075385;28;19917;-85
2022/04/26 14:10:48;;;;;;;;;;;;;;;21.32;42.01;101814.38;5076019;28;19920;-85
2022/04/26 14:13:16;;;;;;;;;;;;;;;21.32;42.25;101812.44;5058632;28;20082;-93
2022/04/26 14:23:53;;;;;;;;;;;;;;;21.32;41.91;101814.38;5077836;28;19923;-89
2022/04/26 14:26:20;;;;;;;;;;;;;;;21.31;41.95;101823.69;5076763;28;19956;-90
2022/04/26 14:28:46;;;;;;;;;;;;;;;21.32;42.21;101814.38;5075624;28;19923;-92
2022/04/26 14:31:14;;;;;;;;;;;;;;;21.32;41.99;101822.59;5075975;28;19920;-88
2022/04/26 14:33:39;;;;;;;;;;;;;;;21.31;42.13;101824.50;5057935;28;19924;-89
2022/04/26 14:36:07;;;;;;;;;;;;;;;21.32;42.29;101817.94;5075845;28;19924;-88
2022/04/26 14:38:32;;;;;;;;;;;;;;;21.31;41.85;101826.44;5075138;28;20015;-87
2022/04/26 14:40:57;;;;;;;;;;;;;;;21.32;42.08;101825.34;5075493;28;19986;-87
2022/04/26 14:43:23;;;;;;;;;;;;;;;21.32;42.12;101823.44;5076303;28;19924;-92
2022/04/26 14:45:51;;;;;;;;;;;;;;;21.32;42.10;101819.88;5075313;28;20007;-88
2022/04/26 14:48:16;;;;;;;;;;;;;;;21.33;41.72;101818.75;5074987;28;20479;-86
2022/04/26 14:50:48;;;;;;;;;;;;;;;21.33;42.11;101818.75;5074602;28;19923;-85
2022/04/26 14:53:14;;;;;;;;;;;;;;;21.32;42.01;101823.44;5074931;28;20265;-86
2022/04/26 14:55:39;;;;;;;;;;;;;;;21.33;41.58;101821.50;5074920;28;19964;-86
2022/04/26 14:58:06;;;;;;;;;;;;;;;21.33;41.88;101816.00;5074955;28;19969;-88
2022/04/26 15:00:39;;;;;;;;;;;;;;;21.33;41.46;101826.97;5058879;28;19924;-89
2022/04/26 15:03:09;;;;;;;;;;;;;;;21.32;41.54;101828.91;5076009;28;19923;-89
2022/04/26 15:05:37;;;;;;;;;;;;;;;21.32;41.75;101817.13;5074719;28;19999;-89
2022/04/26 15:10:51;;;;;;;;;;;;;;;21.32;41.60;101822.59;5076447;28;19963;-88
2022/04/26 15:18:47;;;;;;;;;;;;;;;21.31;41.27;101820.94;5075983;28;19927;-92
2022/04/26 15:21:15;;;;;;;;;;;;;;;21.30;41.14;101819.31;5075181;28;19925;-92
2022/04/26 15:23:42;;;;;;;;;;;;;;;21.31;41.18;101826.44;5075580;28;20003;-92
2022/04/26 15:26:09;;;;;;;;;;;;;;;21.31;41.50;101826.44;5076158;28;19923;-91
2022/04/26 15:28:34;;;;;;;;;;;;;;;21.30;41.35;101825.63;5059045;28;19920;-90
2022/04/26 15:31:02;;;;;;;;;;;;;;;21.29;41.13;101828.66;5075893;28;19922;-91
2022/04/26 15:33:28;;;;;;;;;;;;;;;21.29;41.29;101823.16;5077017;28;19959;-93
2022/04/26 15:35:54;;;;;;;;;;;;;;;21.29;41.28;101823.16;5074926;28;19921;-93
2022/04/26 15:38:20;;;;;;;;;;;;;;;21.27;41.29;101823.47;5074938;28;19924;-92
2022/04/26 15:41:11;;;;;;;;;;;;;;;;;;;;;
2022/04/26 15:43:40;;;;;;;;;;;;;;;21.28;40.77;101829.78;5078949;28;19995;-94
2022/04/26 15:46:09;;;;;;;;;;;;;;;21.26;41.25;101835.56;5074844;28;19970;-94
2022/04/26 15:48:47;;;;;;;;;;;;;;;21.28;41.23;101835.28;5074763;28;20450;-94
2022/04/26 15:51:22;;;;;;;;;;;;;;;21.28;41.17;101838.03;5075457;28;20417;-93
2022/04/26 15:54:16;;;;;;;;;;;;;;;21.27;41.10;101842.72;5075905;28;19916;-95
2022/04/26 15:56:43;;;;;;;;;;;;;;;21.27;41.03;101841.88;5074934;28;19912;-95
2022/04/26 15:59:17;;;;;;;;;;;;;;;21.27;41.25;101842.72;5074509;28;20034;-94
2022/04/26 16:01:53;;;;;;;;;;;;;;;21.27;40.92;101845.47;5074783;28;19912;-94
2022/04/26 16:04:23;;;;;;;;;;;;;;;21.27;41.08;101844.59;5074334;28;19995;-96
2022/04/26 16:06:56;;;;;;;;;;;;;;;21.26;40.94;101845.72;5059686;28;20015;-94
2022/04/26 16:20:37;;;;;;;;;;;;;;;21.25;40.79;101855.91;5076203;28;19923;-93
2022/04/26 16:23:08;;;;;;;;;;;;;;;21.24;41.20;101862.50;5075110;28;19920;-94
2022/04/26 16:25:43;;;;;;;;;;;;;;;21.23;41.13;101860.06;5090962;28;20037;-92
2022/04/26 16:28:11;;;;;;;;;;;;;;;21.24;41.11;101861.69;5059599;28;19931;-95
2022/04/26 16:30:41;;;;;;;;;;;;;;;21.24;41.15;101869.94;5058302;28;19921;-91
2022/04/26 16:33:09;;;;;;;;;;;;;;;21.25;40.79;101871.59;5074016;28;19920;-92
2022/04/26 16:35:34;;;;;;;;;;;;;;;21.24;40.79;101868.00;5076537;28;20241;-90
2022/04/26 16:38:01;;;;;;;;;;;;;;;21.24;41.22;101873.50;5073750;28;19923;-92
2022/04/26 16:40:29;;;;;;;;;;;;;;;21.23;41.06;101869.09;5073736;28;19923;-90
2022/04/26 16:43:01;;;;;;;;;;;;;;;21.23;41.02;101874.59;5074057;28;20015;-92
2022/04/26 16:45:29;;;;;;;;;;;;;;;21.22;40.89;101866.63;5058725;28;19924;-92
2022/04/26 16:47:57;;;;;;;;;;;;;;;21.22;40.77;101870.22;5073178;28;19916;-91
2022/04/26 16:50:24;;;;;;;;;;;;;;;21.24;41.27;101864.44;5073272;28;19959;-92
2022/04/26 16:52:50;;;;;;;;;;;;;;;21.23;40.87;101871.84;5073797;28;20020;-84
2022/04/26 16:55:17;;;;;;;;;;;;;;;21.23;41.04;101873.78;5072104;28;20357;-81
2022/04/26 16:58:12;;;;;;;;;;;;;;;21.22;40.99;101883.97;5055958;28;20381;-92
2022/04/26 17:00:45;;;;;;;;;;;;;;;21.23;41.21;101888.34;5075490;28;20352;-89
2022/04/26 17:03:30;;;;;;;;;;;;;;;21.23;40.94;101882.84;5073633;28;19966;-91
2022/04/26 17:06:04;;;;;;;;;;;;;;;21.24;41.28;101880.91;5073639;28;19968;-91